Time;durP1;ratioP1;P1;durP2;ratioP2;P2;SDS_P1;SDS_P2;PMS_P1;PMS_P2;Temp;Humidity;BMP_temperature;BMP_pressure;BME280_temperature;BME280_humidity;BME280_pressure;Samples;Min_cycle;Max_cycle;Signal;HPM_P1;HPM_P2
2022/01/28 00:01:07;;;;;;;2.97;0.75;;;;;;;;;;5055333;28;20044;-71
2022/01/28 00:03:37;;;;;;;2.55;0.95;;;;;;;;;;5063706;28;20112;-70
2022/01/28 00:06:04;;;;;;;2.40;0.93;;;;;;;;;;5063616;28;20095;-70
2022/01/28 00:08:29;;;;;;;1.23;0.85;;;;;;;;;;5063807;28;20033;-70
2022/01/28 00:10:55;;;;;;;1.48;0.90;;;;;;;;;;5045996;28;20061;-69
2022/01/28 00:13:25;;;;;;;2.08;0.68;;;;;;;;;;5063734;28;20025;-71
2022/01/28 00:37:48;;;;;;;;;;;;;;;;;;5063188;28;20092;-69
2022/01/28 00:40:10;;;;;;;0.70;0.20;;;;;;;;;;5061566;28;20241;-70
2022/01/28 00:42:35;;;;;;;0.38;0.20;;;;;;;;;;5045338;28;20181;-70
2022/01/28 00:45:01;;;;;;;0.55;0.32;;;;;;;;;;5062761;28;20052;-70
2022/01/28 00:47:27;;;;;;;1.95;0.30;;;;;;;;;;5063283;28;20068;-70
2022/01/28 00:49:52;;;;;;;2.97;0.50;;;;;;;;;;5062955;28;20448;-71
2022/01/28 00:52:18;;;;;;;0.68;0.50;;;;;;;;;;5063049;28;20025;-70
2022/01/28 00:54:43;;;;;;;0.60;0.35;;;;;;;;;;5044865;28;20121;-69
2022/01/28 00:57:08;;;;;;;0.85;0.40;;;;;;;;;;5062249;28;20029;-70
2022/01/28 00:59:34;;;;;;;0.30;0.30;;;;;;;;;;5062292;28;20047;-69
2022/01/28 01:01:59;;;;;;;1.65;0.50;;;;;;;;;;5062509;28;20029;-69
2022/01/28 01:04:25;;;;;;;0.57;0.57;;;;;;;;;;5062740;28;20056;-70
2022/01/28 01:06:50;;;;;;;0.80;0.50;;;;;;;;;;5061925;28;20037;-71
2022/01/28 01:09:16;;;;;;;0.95;0.55;;;;;;;;;;5062714;28;20025;-69
2022/01/28 01:11:42;;;;;;;0.95;0.40;;;;;;;;;;5044458;28;20032;-69
2022/01/28 01:14:07;;;;;;;2.15;0.70;;;;;;;;;;5062540;28;20056;-69
2022/01/28 01:16:44;;;;;;;2.40;0.80;;;;;;;;;;5061028;28;20048;-69
2022/01/28 01:21:39;;;;;;;2.45;0.57;;;;;;;;;;5061921;28;20133;-70
2022/01/28 01:24:07;;;;;;;1.42;0.40;;;;;;;;;;5062594;28;20111;-70
2022/01/28 01:26:35;;;;;;;0.50;0.50;;;;;;;;;;5062697;28;20036;-70
2022/01/28 01:29:05;;;;;;;2.90;0.70;;;;;;;;;;5062501;28;20029;-68
2022/01/28 01:31:30;;;;;;;2.67;1.05;;;;;;;;;;5061150;28;20029;-70
2022/01/28 01:36:22;;;;;;;1.88;0.90;;;;;;;;;;5062284;28;20029;-70
2022/01/28 01:38:47;;;;;;;0.93;0.55;;;;;;;;;;5044303;28;20348;-69
2022/01/28 01:41:19;;;;;;;4.57;1.08;;;;;;;;;;5062126;28;20469;-70
2022/01/28 01:44:04;;;;;;;3.70;0.88;;;;;;;;;;5062013;28;20036;-69
2022/01/28 01:52:02;;;;;;;4.63;1.38;;;;;;;;;;5062502;28;20044;-69
2022/01/28 01:54:29;;;;;;;7.00;1.30;;;;;;;;;;5062257;28;20401;-69
2022/01/28 01:56:56;;;;;;;3.97;1.20;;;;;;;;;;5061736;28;20035;-67
2022/01/28 01:59:24;;;;;;;4.53;2.22;;;;;;;;;;5061933;28;20537;-70
2022/01/28 02:01:49;;;;;;;5.53;1.88;;;;;;;;;;5062218;28;20093;-70
2022/01/28 02:04:15;;;;;;;4.60;1.48;;;;;;;;;;5061901;28;20057;-68
2022/01/28 02:06:40;;;;;;;4.55;1.65;;;;;;;;;;5060989;28;20059;-69
2022/01/28 02:09:07;;;;;;;3.78;1.67;;;;;;;;;;5084263;28;20028;-69
2022/01/28 02:11:32;;;;;;;6.18;1.67;;;;;;;;;;5085036;28;20020;-69
2022/01/28 02:13:58;;;;;;;7.72;2.35;;;;;;;;;;5085502;28;20085;-70
2022/01/28 02:16:23;;;;;;;7.32;2.80;;;;;;;;;;5067818;28;20035;-69
2022/01/28 02:18:49;;;;;;;6.85;1.77;;;;;;;;;;5085556;28;20028;-70
2022/01/28 02:21:16;;;;;;;4.30;1.80;;;;;;;;;;5086036;28;20090;-70
2022/01/28 02:23:45;;;;;;;6.30;1.60;;;;;;;;;;5084948;28;20075;-70
2022/01/28 02:26:14;;;;;;;4.78;1.67;;;;;;;;;;5085399;28;20371;-68
2022/01/28 02:28:41;;;;;;;4.00;1.40;;;;;;;;;;5085323;28;20433;-69
2022/01/28 02:31:07;;;;;;;3.47;1.52;;;;;;;;;;5085378;28;20044;-68
2022/01/28 02:33:32;;;;;;;3.58;1.40;;;;;;;;;;5084618;28;20031;-67
2022/01/28 02:36:06;;;;;;;6.63;1.45;;;;;;;;;;5084912;28;20047;-68
2022/01/28 02:38:33;;;;;;;4.18;1.65;;;;;;;;;;5084680;28;20021;-69
2022/01/28 02:41:01;;;;;;;2.50;1.00;;;;;;;;;;5085320;28;20027;-68
2022/01/28 02:45:56;;;;;;;3.28;1.15;;;;;;;;;;5085424;28;20035;-69
2022/01/28 02:48:26;;;;;;;4.78;2.13;;;;;;;;;;5067080;28;20065;-70
2022/01/28 02:53:40;;;;;;;3.03;1.08;;;;;;;;;;5084698;28;20024;-68
2022/01/28 02:56:14;;;;;;;2.55;1.00;;;;;;;;;;5084691;28;20027;-69
2022/01/28 02:58:40;;;;;;;4.53;1.27;;;;;;;;;;5067227;28;20453;-68
2022/01/28 03:01:06;;;;;;;3.97;1.73;;;;;;;;;;5084927;28;20503;-70
2022/01/28 03:03:31;;;;;;;4.93;1.40;;;;;;;;;;5085193;28;20025;-69
2022/01/28 03:05:57;;;;;;;1.80;1.02;;;;;;;;;;5073375;28;20047;-68
2022/01/28 03:08:25;;;;;;;3.58;1.17;;;;;;;;;;5064786;28;20032;-69
2022/01/28 03:13:57;;;;;;;3.42;1.40;;;;;;;;;;5064808;28;20352;-70
2022/01/28 03:16:21;;;;;;;5.60;1.63;;;;;;;;;;5063594;28;20432;-68
2022/01/28 03:22:00;;;;;;;4.20;1.27;;;;;;;;;;5064479;28;20052;-70
2022/01/28 03:23:58;;;;;;;4.05;1.67;;;;;;;;;;5053163;28;20102;-70
2022/01/28 03:26:26;;;;;;;2.83;1.20;;;;;;;;;;5064610;28;20079;-69
2022/01/28 03:28:52;;;;;;;5.15;1.50;;;;;;;;;;5064205;28;20031;-68
2022/01/28 03:31:18;;;;;;;5.40;1.38;;;;;;;;;;5064283;28;20100;-68
2022/01/28 03:33:44;;;;;;;4.60;1.58;;;;;;;;;;5063993;28;20031;-70
2022/01/28 03:36:11;;;;;;;2.40;1.10;;;;;;;;;;5063061;28;20029;-69
2022/01/28 03:38:38;;;;;;;4.30;1.10;;;;;;;;;;5062039;28;20036;-71
2022/01/28 03:41:05;;;;;;;3.63;1.27;;;;;;;;;;5078439;28;20021;-71
2022/01/28 03:43:30;;;;;;;4.43;1.30;;;;;;;;;;5061832;28;20241;-73
2022/01/28 03:45:56;;;;;;;4.57;1.23;;;;;;;;;;5062469;28;20117;-69
2022/01/28 03:48:21;;;;;;;4.88;1.20;;;;;;;;;;5063522;28;20036;-71
2022/01/28 03:50:46;;;;;;;1.10;0.77;;;;;;;;;;5062938;28;20064;-69
2022/01/28 03:53:12;;;;;;;3.53;0.80;;;;;;;;;;5063713;28;20025;-70
2022/01/28 03:55:38;;;;;;;2.45;0.60;;;;;;;;;;5063837;28;20535;-72
2022/01/28 03:58:03;;;;;;;1.00;0.70;;;;;;;;;;5062569;28;20596;-71
2022/01/28 04:00:31;;;;;;;3.97;1.15;;;;;;;;;;5063484;28;20021;-68
2022/01/28 04:03:06;;;;;;;3.13;0.77;;;;;;;;;;5063562;28;20021;-71
2022/01/28 04:13:28;;;;;;;;;;;;;;;;;;5064140;28;20073;-70
2022/01/28 04:16:17;;;;;;;5.22;1.58;;;;;;;;;;5063751;28;19912;-69
2022/01/28 04:18:39;;;;;;;3.97;1.00;;;;;;;;;;5062390;28;20032;-69
2022/01/28 04:21:04;;;;;;;3.25;1.27;;;;;;;;;;5063605;28;20055;-70
2022/01/28 04:23:30;;;;;;;3.78;1.00;;;;;;;;;;5061874;28;20060;-71
2022/01/28 04:25:55;;;;;;;1.85;0.70;;;;;;;;;;5063330;28;20033;-71
2022/01/28 04:28:20;;;;;;;4.75;1.00;;;;;;;;;;5063020;28;20028;-70
2022/01/28 04:30:47;;;;;;;0.98;0.80;;;;;;;;;;5062683;28;20040;-72
2022/01/28 04:33:12;;;;;;;2.90;0.75;;;;;;;;;;5063050;28;20051;-71
2022/01/28 04:35:38;;;;;;;3.45;0.80;;;;;;;;;;5061621;28;20029;-71
2022/01/28 04:40:42;;;;;;;0.82;0.60;;;;;;;;;;5062517;28;20025;-71
2022/01/28 04:43:17;;;;;;;2.25;0.90;;;;;;;;;;5062906;28;20017;-72
2022/01/28 04:46:05;;;;;;;0.70;0.60;;;;;;;;;;5062971;28;20053;-71
2022/01/28 04:48:42;;;;;;;1.23;0.80;;;;;;;;;;5062656;28;20385;-70
2022/01/28 04:56:27;;;;;;;1.08;0.60;;;;;;;;;;5063096;28;20088;-71
2022/01/28 04:59:13;;;;;;;1.90;0.80;;;;;;;;;;5062540;28;20032;-70
2022/01/28 05:12:47;;;;;;;2.65;0.93;;;;;;;;;;5062361;28;20033;-71
2022/01/28 05:27:58;;;;;;;1.98;0.90;;;;;;;;;;5062030;28;20036;-72
2022/01/28 05:30:23;;;;;;;2.17;0.77;;;;;;;;;;5061049;28;20075;-72
2022/01/28 05:32:49;;;;;;;3.63;0.80;;;;;;;;;;5062028;28;20576;-71
2022/01/28 05:35:14;;;;;;;1.35;0.60;;;;;;;;;;5062383;28;20029;-72
2022/01/28 05:37:39;;;;;;;3.30;0.80;;;;;;;;;;5059850;28;20091;-73
2022/01/28 05:40:05;;;;;;;1.52;0.57;;;;;;;;;;5060476;28;20025;-71
2022/01/28 05:42:31;;;;;;;0.68;0.45;;;;;;;;;;5062275;28;20021;-73
2022/01/28 05:44:56;;;;;;;3.55;0.70;;;;;;;;;;5066479;28;20029;-73
2022/01/28 05:47:24;;;;;;;1.85;0.77;;;;;;;;;;5066030;28;20421;-73
2022/01/28 05:49:50;;;;;;;2.20;0.60;;;;;;;;;;5066283;28;20021;-73
2022/01/28 05:52:15;;;;;;;1.10;0.65;;;;;;;;;;5064576;28;20036;-72
2022/01/28 05:54:40;;;;;;;0.73;0.43;;;;;;;;;;5066136;28;20499;-72
2022/01/28 05:57:06;;;;;;;2.15;0.70;;;;;;;;;;5065792;28;20033;-73
2022/01/28 05:59:31;;;;;;;2.00;0.75;;;;;;;;;;5065948;28;20029;-72
2022/01/28 06:01:57;;;;;;;1.25;0.55;;;;;;;;;;5065873;28;20029;-71
2022/01/28 06:04:22;;;;;;;1.35;0.40;;;;;;;;;;5065668;28;20029;-74
2022/01/28 06:06:48;;;;;;;0.68;0.50;;;;;;;;;;5065122;28;20079;-73
2022/01/28 06:09:13;;;;;;;1.63;0.77;;;;;;;;;;5065523;28;20035;-73
2022/01/28 06:11:39;;;;;;;2.42;0.40;;;;;;;;;;5065994;28;20074;-72
2022/01/28 06:14:04;;;;;;;1.48;0.80;;;;;;;;;;5066134;28;20027;-74
2022/01/28 06:16:29;;;;;;;1.48;0.63;;;;;;;;;;5065456;28;20033;-73
2022/01/28 06:18:55;;;;;;;1.58;0.60;;;;;;;;;;5065867;28;20040;-73
2022/01/28 06:21:20;;;;;;;2.00;0.70;;;;;;;;;;5065720;28;20064;-73
2022/01/28 06:23:46;;;;;;;3.33;0.60;;;;;;;;;;5065816;28;20034;-73
2022/01/28 06:26:13;;;;;;;1.67;0.65;;;;;;;;;;5065479;28;20025;-73
2022/01/28 06:28:39;;;;;;;1.95;1.15;;;;;;;;;;5065556;28;20056;-72
2022/01/28 06:31:04;;;;;;;2.47;0.47;;;;;;;;;;5064117;28;20076;-73
2022/01/28 06:33:30;;;;;;;1.48;0.52;;;;;;;;;;5065680;28;20048;-73
2022/01/28 06:35:55;;;;;;;3.55;0.80;;;;;;;;;;5065223;28;20027;-73
2022/01/28 06:38:21;;;;;;;0.93;0.45;;;;;;;;;;5065026;28;20064;-73
2022/01/28 06:40:48;;;;;;;2.97;0.60;;;;;;;;;;5065410;28;20056;-72
2022/01/28 06:43:15;;;;;;;2.25;0.60;;;;;;;;;;5065441;28;20032;-72
2022/01/28 06:45:42;;;;;;;3.35;0.40;;;;;;;;;;5065793;28;20025;-71
2022/01/28 06:48:12;;;;;;;0.93;0.50;;;;;;;;;;5064993;28;20060;-73
2022/01/28 06:50:41;;;;;;;1.30;0.60;;;;;;;;;;5065171;28;20029;-72
2022/01/28 06:53:07;;;;;;;1.23;0.38;;;;;;;;;;5064218;28;20055;-74
2022/01/28 06:55:33;;;;;;;2.22;0.50;;;;;;;;;;5064244;28;20028;-71
2022/01/28 06:57:58;;;;;;;2.22;0.77;;;;;;;;;;5065210;28;20025;-69
2022/01/28 07:00:24;;;;;;;3.13;0.63;;;;;;;;;;5064936;28;20028;-70
2022/01/28 07:02:50;;;;;;;3.42;0.95;;;;;;;;;;5064786;28;20029;-70
2022/01/28 07:05:16;;;;;;;1.33;0.60;;;;;;;;;;5064931;28;20068;-71
2022/01/28 07:07:41;;;;;;;2.45;0.60;;;;;;;;;;5064828;28;20029;-71
2022/01/28 07:10:07;;;;;;;2.38;0.68;;;;;;;;;;5063886;28;20033;-70
2022/01/28 07:12:32;;;;;;;1.90;0.80;;;;;;;;;;5064242;28;20385;-70
2022/01/28 07:14:58;;;;;;;1.85;0.60;;;;;;;;;;5065023;28;20029;-71
2022/01/28 07:17:23;;;;;;;1.58;0.50;;;;;;;;;;5064921;28;20032;-70
2022/01/28 07:19:48;;;;;;;2.00;0.60;;;;;;;;;;5065083;28;20028;-71
2022/01/28 07:22:14;;;;;;;2.63;0.82;;;;;;;;;;5064199;28;20025;-68
2022/01/28 07:24:39;;;;;;;4.22;1.27;;;;;;;;;;5065145;28;20037;-70
2022/01/28 07:27:05;;;;;;;2.17;0.45;;;;;;;;;;5063925;28;20120;-70
2022/01/28 07:29:33;;;;;;;4.18;0.95;;;;;;;;;;5064232;28;20410;-70
2022/01/28 07:31:58;;;;;;;0.93;0.60;;;;;;;;;;5062841;28;20032;-69
2022/01/28 07:34:24;;;;;;;1.17;0.40;;;;;;;;;;5063230;28;20025;-69
2022/01/28 07:36:50;;;;;;;2.85;0.80;;;;;;;;;;5064335;28;20055;-69
2022/01/28 07:39:16;;;;;;;4.03;0.93;;;;;;;;;;5064077;28;20052;-70
2022/01/28 07:41:41;;;;;;;2.00;0.35;;;;;;;;;;5063076;28;20029;-69
2022/01/28 07:44:07;;;;;;;5.07;0.60;;;;;;;;;;5064020;28;20025;-68
2022/01/28 07:46:33;;;;;;;1.60;0.40;;;;;;;;;;5064383;28;20056;-70
2022/01/28 07:48:58;;;;;;;3.38;0.70;;;;;;;;;;5064288;28;20025;-69
2022/01/28 07:51:24;;;;;;;5.78;1.38;;;;;;;;;;5064451;28;20025;-69
2022/01/28 07:53:49;;;;;;;1.45;0.40;;;;;;;;;;5063733;28;20022;-69
2022/01/28 07:56:15;;;;;;;0.95;0.50;;;;;;;;;;5063707;28;20350;-69
2022/01/28 07:58:41;;;;;;;0.93;0.40;;;;;;;;;;5063729;28;20343;-69
2022/01/28 08:01:07;;;;;;;2.45;0.50;;;;;;;;;;5064030;28;20033;-69
2022/01/28 08:03:32;;;;;;;4.05;0.50;;;;;;;;;;5063621;28;20088;-69
2022/01/28 08:05:58;;;;;;;0.75;0.45;;;;;;;;;;5062703;28;20049;-69
2022/01/28 08:08:23;;;;;;;3.28;0.65;;;;;;;;;;5045498;28;20037;-71
2022/01/28 08:10:50;;;;;;;5.35;0.50;;;;;;;;;;5046892;28;20053;-69
2022/01/28 08:13:16;;;;;;;2.22;0.55;;;;;;;;;;5043135;28;20035;-69
2022/01/28 08:15:42;;;;;;;2.25;0.50;;;;;;;;;;5061781;28;20025;-69
2022/01/28 08:18:08;;;;;;;2.20;0.50;;;;;;;;;;5060991;28;20159;-69
2022/01/28 08:20:34;;;;;;;4.57;0.80;;;;;;;;;;5061871;28;20032;-67
2022/01/28 08:23:00;;;;;;;1.52;1.02;;;;;;;;;;5043009;28;20029;-68
2022/01/28 08:25:28;;;;;;;2.83;0.40;;;;;;;;;;5061960;28;20025;-69
2022/01/28 08:27:54;;;;;;;0.77;0.38;;;;;;;;;;5045199;28;20028;-70
2022/01/28 08:30:22;;;;;;;2.60;0.47;;;;;;;;;;5063065;28;20060;-69
2022/01/28 08:32:48;;;;;;;3.35;0.52;;;;;;;;;;5063142;28;20057;-69
2022/01/28 08:35:15;;;;;;;2.38;0.70;;;;;;;;;;5063696;28;20093;-70
2022/01/28 08:37:40;;;;;;;2.13;0.52;;;;;;;;;;5063190;28;20033;-68
2022/01/28 08:40:07;;;;;;;2.90;0.50;;;;;;;;;;5045414;28;20361;-70
2022/01/28 08:42:33;;;;;;;1.55;0.60;;;;;;;;;;5063353;28;20033;-69
2022/01/28 08:44:58;;;;;;;3.35;0.68;;;;;;;;;;5063368;28;20052;-69
2022/01/28 08:47:24;;;;;;;4.03;1.30;;;;;;;;;;5063190;28;20056;-69
2022/01/28 08:49:49;;;;;;;2.53;0.57;;;;;;;;;;5063266;28;20036;-69
2022/01/28 08:52:15;;;;;;;1.02;0.40;;;;;;;;;;5062765;28;20036;-70
2022/01/28 08:54:41;;;;;;;3.42;0.52;;;;;;;;;;5063143;28;20229;-71
2022/01/28 08:57:06;;;;;;;2.17;0.60;;;;;;;;;;5062663;28;20466;-69
2022/01/28 08:59:32;;;;;;;2.67;0.85;;;;;;;;;;5062818;28;20040;-70
2022/01/28 09:01:57;;;;;;;3.60;0.52;;;;;;;;;;5063048;28;20047;-68
2022/01/28 09:04:22;;;;;;;2.20;0.70;;;;;;;;;;5063219;28;20092;-71
2022/01/28 09:06:48;;;;;;;4.80;1.20;;;;;;;;;;5062224;28;20052;-68
2022/01/28 09:09:13;;;;;;;4.55;0.70;;;;;;;;;;5055556;28;20037;-70
2022/01/28 09:11:52;;;;;;;4.53;0.75;;;;;;;;;;5062682;28;20037;-69
2022/01/28 09:14:21;;;;;;;2.92;0.50;;;;;;;;;;5062765;28;20027;-69
2022/01/28 09:16:47;;;;;;;2.85;1.08;;;;;;;;;;5061763;28;20114;-72
2022/01/28 09:19:13;;;;;;;2.30;0.57;;;;;;;;;;5062829;28;20052;-70
2022/01/28 09:21:40;;;;;;;4.32;1.02;;;;;;;;;;5063122;28;20048;-70
2022/01/28 09:24:06;;;;;;;4.15;0.90;;;;;;;;;;5062298;28;20035;-70
2022/01/28 09:26:32;;;;;;;5.18;0.85;;;;;;;;;;5062395;28;20569;-69
2022/01/28 09:28:57;;;;;;;6.25;0.60;;;;;;;;;;5061675;28;20048;-71
2022/01/28 09:31:23;;;;;;;4.20;0.52;;;;;;;;;;5044742;28;20029;-69
2022/01/28 09:33:48;;;;;;;2.40;0.57;;;;;;;;;;5062585;28;20028;-68
2022/01/28 09:36:14;;;;;;;3.75;0.50;;;;;;;;;;5063021;28;20124;-69
2022/01/28 09:38:39;;;;;;;2.47;0.70;;;;;;;;;;5062498;28;20036;-69
2022/01/28 09:41:08;;;;;;;2.47;0.70;;;;;;;;;;5062749;28;20032;-70
2022/01/28 09:43:34;;;;;;;3.55;0.88;;;;;;;;;;5062455;28;20313;-71
2022/01/28 09:46:00;;;;;;;2.90;0.82;;;;;;;;;;5062821;28;20032;-70
2022/01/28 09:48:25;;;;;;;1.90;0.80;;;;;;;;;;5062358;28;20045;-71
2022/01/28 09:50:51;;;;;;;2.65;1.13;;;;;;;;;;5044708;28;20132;-70
2022/01/28 09:53:18;;;;;;;4.50;0.73;;;;;;;;;;5062557;28;20037;-70
2022/01/28 09:55:45;;;;;;;4.30;0.75;;;;;;;;;;5062616;28;20052;-69
2022/01/28 09:58:11;;;;;;;2.63;0.60;;;;;;;;;;5062192;28;20025;-70
2022/01/28 10:00:36;;;;;;;3.72;1.10;;;;;;;;;;5062477;28;20033;-68
2022/01/28 10:03:10;;;;;;;4.72;0.63;;;;;;;;;;5062368;28;20032;-71
2022/01/28 10:05:36;;;;;;;3.60;0.75;;;;;;;;;;5061864;28;20107;-69
2022/01/28 10:08:05;;;;;;;4.28;0.90;;;;;;;;;;5061794;28;20029;-69
2022/01/28 10:10:46;;;;;;;4.15;0.73;;;;;;;;;;5062399;28;20017;-71
2022/01/28 10:13:21;;;;;;;3.80;0.90;;;;;;;;;;5062012;28;20477;-69
2022/01/28 10:16:06;;;;;;;4.38;0.75;;;;;;;;;;5062053;28;20056;-70
2022/01/28 10:18:43;;;;;;;5.10;0.80;;;;;;;;;;5061609;28;20037;-73
2022/01/28 10:21:33;;;;;;;4.07;0.80;;;;;;;;;;5062217;28;20033;-68
2022/01/28 10:24:09;;;;;;;3.17;0.60;;;;;;;;;;5062055;28;20029;-70
2022/01/28 10:26:48;;;;;;;3.58;0.93;;;;;;;;;;5062304;28;20470;-69
2022/01/28 10:29:17;;;;;;;1.42;0.63;;;;;;;;;;5064463;28;20128;-71
2022/01/28 10:31:58;;;;;;;5.43;1.08;;;;;;;;;;5065766;28;20021;-69
2022/01/28 10:34:36;;;;;;;1.65;0.65;;;;;;;;;;5065598;28;20032;-71
2022/01/28 10:37:16;;;;;;;5.55;0.80;;;;;;;;;;5047269;28;20036;-69
2022/01/28 10:39:57;;;;;;;2.83;0.55;;;;;;;;;;5065479;28;20031;-69
2022/01/28 10:42:25;;;;;;;4.78;0.95;;;;;;;;;;5064975;28;20277;-71
2022/01/28 10:44:57;;;;;;;3.97;0.95;;;;;;;;;;5063697;28;20036;-71
2022/01/28 10:47:40;;;;;;;1.40;0.47;;;;;;;;;;5064220;28;20071;-71
2022/01/28 10:50:26;;;;;;;3.08;0.60;;;;;;;;;;5046453;28;20480;-69
2022/01/28 10:53:03;;;;;;;2.30;0.57;;;;;;;;;;5065260;28;20052;-69
2022/01/28 10:55:31;;;;;;;1.48;0.90;;;;;;;;;;5065607;28;20442;-68
2022/01/28 10:58:02;;;;;;;3.38;1.60;;;;;;;;;;5064958;28;20694;-69
2022/01/28 11:00:31;;;;;;;2.22;0.70;;;;;;;;;;5065456;28;20080;-72
2022/01/28 11:03:02;;;;;;;1.45;0.70;;;;;;;;;;5064928;28;20436;-70
2022/01/28 11:05:33;;;;;;;2.67;0.75;;;;;;;;;;5064994;28;20084;-70
2022/01/28 11:08:00;;;;;;;6.70;1.52;;;;;;;;;;5049584;28;20055;-69
2022/01/28 11:10:26;;;;;;;1.60;0.40;;;;;;;;;;5064594;28;20088;-69
2022/01/28 11:12:53;;;;;;;3.08;0.63;;;;;;;;;;5061263;28;20044;-70
2022/01/28 11:15:20;;;;;;;1.63;0.57;;;;;;;;;;5064300;28;20033;-69
2022/01/28 11:17:47;;;;;;;2.45;0.50;;;;;;;;;;5063190;28;20048;-71
2022/01/28 11:20:17;;;;;;;1.98;0.93;;;;;;;;;;5064162;28;20025;-69
2022/01/28 11:23:04;;;;;;;2.20;0.60;;;;;;;;;;5064912;28;20024;-69
2022/01/28 11:25:53;;;;;;;3.15;0.80;;;;;;;;;;5064707;28;20104;-70
2022/01/28 11:28:18;;;;;;;2.88;0.88;;;;;;;;;;5046558;28;20021;-69
2022/01/28 11:30:47;;;;;;;3.22;0.60;;;;;;;;;;5064585;28;20033;-68
2022/01/28 11:33:13;;;;;;;2.88;0.60;;;;;;;;;;5044511;28;20409;-69
2022/01/28 11:35:39;;;;;;;2.92;0.60;;;;;;;;;;5062096;28;20243;-68
2022/01/28 11:38:23;;;;;;;1.48;0.40;;;;;;;;;;5062056;28;20037;-70
2022/01/28 11:40:53;;;;;;;2.17;0.40;;;;;;;;;;5062582;28;20029;-71
2022/01/28 11:43:21;;;;;;;3.65;0.93;;;;;;;;;;5062789;28;20091;-70
2022/01/28 11:45:46;;;;;;;4.07;0.57;;;;;;;;;;5062928;28;20025;-69
2022/01/28 11:48:12;;;;;;;2.40;0.50;;;;;;;;;;5062772;28;20039;-70
2022/01/28 11:50:37;;;;;;;2.97;0.77;;;;;;;;;;5063307;28;20032;-70
2022/01/28 11:53:21;;;;;;;2.45;0.60;;;;;;;;;;5063875;28;20048;-69
2022/01/28 11:56:00;;;;;;;2.63;0.63;;;;;;;;;;5046214;28;20036;-72
2022/01/28 11:58:51;;;;;;;2.85;0.65;;;;;;;;;;5062809;28;20543;-69
2022/01/28 12:01:22;;;;;;;5.80;0.98;;;;;;;;;;5063959;28;20033;-68
2022/01/28 12:03:47;;;;;;;2.55;0.50;;;;;;;;;;5062789;28;20081;-68
2022/01/28 12:06:13;;;;;;;2.80;0.55;;;;;;;;;;5063024;28;20037;-68
2022/01/28 12:08:41;;;;;;;2.35;0.60;;;;;;;;;;5045564;28;20658;-69
2022/01/28 12:11:08;;;;;;;2.30;0.77;;;;;;;;;;5063929;28;20040;-70
2022/01/28 12:14:01;;;;;;;2.40;0.73;;;;;;;;;;5045093;28;20093;-68
2022/01/28 12:16:33;;;;;;;2.53;0.50;;;;;;;;;;5063808;28;20021;-70
2022/01/28 12:19:01;;;;;;;2.45;0.47;;;;;;;;;;5063824;28;20555;-68
2022/01/28 12:21:28;;;;;;;1.17;0.50;;;;;;;;;;5045565;28;20025;-70
2022/01/28 12:24:14;;;;;;;3.33;0.60;;;;;;;;;;5063709;28;20055;-69
2022/01/28 12:26:59;;;;;;;1.83;0.60;;;;;;;;;;5063667;28;20041;-67
2022/01/28 12:29:43;;;;;;;3.33;0.60;;;;;;;;;;5063537;28;20033;-69
2022/01/28 12:32:10;;;;;;;1.73;0.38;;;;;;;;;;5062633;28;20458;-69
2022/01/28 12:34:42;;;;;;;2.58;0.50;;;;;;;;;;5063018;28;20044;-70
2022/01/28 12:37:08;;;;;;;2.28;0.60;;;;;;;;;;5061302;28;20041;-70
2022/01/28 12:39:40;;;;;;;1.42;0.43;;;;;;;;;;5063091;28;20051;-69
2022/01/28 12:42:27;;;;;;;5.82;0.80;;;;;;;;;;5062212;28;20093;-68
2022/01/28 12:44:57;;;;;;;2.45;0.45;;;;;;;;;;5062427;28;20029;-68
2022/01/28 12:47:23;;;;;;;1.27;0.30;;;;;;;;;;5062815;28;20039;-67
2022/01/28 12:49:56;;;;;;;1.20;0.40;;;;;;;;;;5063133;28;20033;-69
2022/01/28 12:52:22;;;;;;;2.90;0.80;;;;;;;;;;5061431;28;20553;-69
2022/01/28 12:54:48;;;;;;;1.25;0.35;;;;;;;;;;5062318;28;20131;-71
2022/01/28 12:57:18;;;;;;;2.33;0.50;;;;;;;;;;5062082;28;20025;-68
2022/01/28 12:59:46;;;;;;;1.25;0.63;;;;;;;;;;5049412;28;20477;-69
2022/01/28 13:02:12;;;;;;;0.60;0.40;;;;;;;;;;5062795;28;20140;-69
2022/01/28 13:04:57;;;;;;;2.97;0.63;;;;;;;;;;5044703;28;20013;-68
2022/01/28 13:09:51;;;;;;;1.73;0.30;;;;;;;;;;5062676;28;20028;-68
2022/01/28 13:12:28;;;;;;;1.67;0.50;;;;;;;;;;5062944;28;20056;-70
2022/01/28 13:14:54;;;;;;;3.08;0.70;;;;;;;;;;5062755;28;20485;-69
2022/01/28 13:17:23;;;;;;;2.35;0.50;;;;;;;;;;5044307;28;20033;-68
2022/01/28 13:20:04;;;;;;;2.60;0.90;;;;;;;;;;5063156;28;20029;-70
2022/01/28 13:22:31;;;;;;;6.65;0.80;;;;;;;;;;5060790;28;20037;-69
2022/01/28 13:24:57;;;;;;;1.80;0.68;;;;;;;;;;5062861;28;20099;-69
2022/01/28 13:27:38;;;;;;;4.03;0.63;;;;;;;;;;5044059;28;20096;-68
2022/01/28 13:30:14;;;;;;;3.72;0.75;;;;;;;;;;5062726;28;20055;-69
2022/01/28 13:32:42;;;;;;;2.13;0.50;;;;;;;;;;5044534;28;20025;-70
2022/01/28 13:35:17;;;;;;;1.45;0.40;;;;;;;;;;5062702;28;20025;-69
2022/01/28 13:37:57;;;;;;;1.00;0.40;;;;;;;;;;5061316;28;20040;-68
2022/01/28 13:40:40;;;;;;;2.47;0.63;;;;;;;;;;5062752;28;20028;-68
2022/01/28 13:43:11;;;;;;;7.03;1.85;;;;;;;;;;5044273;28;20037;-68
2022/01/28 13:45:38;;;;;;;4.00;0.85;;;;;;;;;;5062100;28;20033;-71
2022/01/28 13:48:06;;;;;;;2.20;0.68;;;;;;;;;;5062349;28;20021;-67
2022/01/28 13:50:42;;;;;;;3.20;0.50;;;;;;;;;;5062384;28;20037;-68
2022/01/28 13:56:05;;;;;;;1.30;0.50;;;;;;;;;;5062695;28;20033;-70
2022/01/28 13:58:53;;;;;;;2.83;0.50;;;;;;;;;;5062388;28;20025;-72
2022/01/28 14:01:24;;;;;;;0.85;0.40;;;;;;;;;;5062598;28;20052;-70
2022/01/28 14:03:58;;;;;;;0.60;0.32;;;;;;;;;;5046277;28;20029;-69
2022/01/28 14:06:29;;;;;;;1.52;0.40;;;;;;;;;;5053106;28;20136;-69
2022/01/28 14:09:09;;;;;;;5.43;1.00;;;;;;;;;;5045805;28;20084;-68
2022/01/28 14:11:40;;;;;;;3.38;0.63;;;;;;;;;;5046153;28;20025;-70
2022/01/28 14:14:25;;;;;;;1.05;0.57;;;;;;;;;;5045829;28;20064;-69
2022/01/28 14:16:59;;;;;;;0.63;0.30;;;;;;;;;;5045996;28;20489;-67
2022/01/28 14:19:26;;;;;;;1.83;0.50;;;;;;;;;;5046324;28;20048;-69
2022/01/28 14:21:52;;;;;;;2.17;0.40;;;;;;;;;;5045970;28;20049;-70
2022/01/28 14:24:22;;;;;;;1.88;0.50;;;;;;;;;;5045882;28;20022;-67
2022/01/28 14:26:57;;;;;;;3.80;0.70;;;;;;;;;;5045200;28;20038;-68
2022/01/28 14:31:54;;;;;;;3.33;0.63;;;;;;;;;;5043837;28;20029;-69
2022/01/28 14:34:20;;;;;;;2.58;0.73;;;;;;;;;;5026785;28;20041;-68
2022/01/28 14:36:46;;;;;;;1.00;0.43;;;;;;;;;;5043521;28;20028;-69
2022/01/28 14:39:14;;;;;;;1.60;0.45;;;;;;;;;;5044164;28;20029;-69
2022/01/28 14:41:42;;;;;;;1.33;0.63;;;;;;;;;;5044466;28;20053;-69
2022/01/28 14:44:07;;;;;;;1.52;0.40;;;;;;;;;;5027614;28;20064;-68
2022/01/28 14:46:33;;;;;;;0.45;0.30;;;;;;;;;;5027977;28;20022;-69
2022/01/28 14:49:00;;;;;;;2.13;0.40;;;;;;;;;;5044978;28;20032;-68
2022/01/28 14:51:26;;;;;;;2.65;0.50;;;;;;;;;;5044656;28;20116;-70
2022/01/28 14:53:53;;;;;;;1.10;0.85;;;;;;;;;;5027183;28;20124;-68
2022/01/28 14:56:18;;;;;;;2.45;0.45;;;;;;;;;;5045586;28;20043;-67
2022/01/28 14:58:45;;;;;;;2.78;0.70;;;;;;;;;;5045016;28;20093;-71
2022/01/28 15:01:10;;;;;;;3.35;0.80;;;;;;;;;;5045278;28;20031;-68
2022/01/28 15:03:36;;;;;;;1.73;0.60;;;;;;;;;;5044730;28;20064;-68
2022/01/28 15:06:01;;;;;;;3.38;0.88;;;;;;;;;;5055023;28;20041;-67
2022/01/28 15:08:27;;;;;;;4.10;0.85;;;;;;;;;;5064782;28;20059;-69
2022/01/28 15:10:56;;;;;;;5.45;0.80;;;;;;;;;;5065047;28;20152;-68
2022/01/28 15:13:21;;;;;;;4.15;0.50;;;;;;;;;;5064267;28;20039;-68
2022/01/28 15:15:47;;;;;;;3.15;1.27;;;;;;;;;;5064101;28;20045;-68
2022/01/28 15:18:12;;;;;;;2.88;0.60;;;;;;;;;;5063320;28;20029;-69
2022/01/28 15:20:38;;;;;;;1.90;0.60;;;;;;;;;;5064894;28;20021;-67
2022/01/28 15:23:04;;;;;;;2.67;0.60;;;;;;;;;;5064850;28;20051;-67
2022/01/28 15:25:31;;;;;;;3.42;0.65;;;;;;;;;;5064756;28;20029;-69
2022/01/28 15:27:57;;;;;;;2.35;0.43;;;;;;;;;;5064508;28;20056;-68
2022/01/28 15:38:00;;;;;;;2.33;0.50;;;;;;;;;;5064478;28;19976;-71
2022/01/28 15:40:25;;;;;;;2.20;0.50;;;;;;;;;;5064815;28;20040;-67
2022/01/28 15:42:53;;;;;;;2.08;0.40;;;;;;;;;;5064662;28;20033;-69
2022/01/28 15:45:20;;;;;;;2.00;0.50;;;;;;;;;;5064365;28;20017;-68
2022/01/28 15:47:46;;;;;;;1.30;0.57;;;;;;;;;;5064321;28;20370;-69
2022/01/28 15:50:13;;;;;;;3.28;0.82;;;;;;;;;;5064320;28;20056;-67
2022/01/28 15:52:39;;;;;;;2.88;0.88;;;;;;;;;;5063076;28;20381;-68
2022/01/28 15:55:06;;;;;;;2.40;0.60;;;;;;;;;;5064120;28;20021;-69
2022/01/28 15:57:31;;;;;;;1.30;0.35;;;;;;;;;;5064219;28;20112;-69
2022/01/28 15:59:57;;;;;;;0.85;0.40;;;;;;;;;;5064183;28;20032;-69
2022/01/28 16:02:22;;;;;;;2.67;1.05;;;;;;;;;;5063897;28;20087;-68
2022/01/28 16:04:47;;;;;;;2.03;0.63;;;;;;;;;;5063901;28;20413;-70
2022/01/28 16:07:15;;;;;;;1.52;0.55;;;;;;;;;;5063593;28;20053;-69
2022/01/28 16:09:48;;;;;;;2.50;0.65;;;;;;;;;;5045960;28;20021;-68
2022/01/28 16:12:30;;;;;;;;;;;;;;;;;;5064410;28;20060;-70
2022/01/28 16:14:55;;;;;;;2.88;0.50;;;;;;;;;;5064001;28;19920;-68
2022/01/28 16:19:49;;;;;;;1.50;0.50;;;;;;;;;;5063592;28;20037;-68
2022/01/28 16:22:14;;;;;;;1.83;0.50;;;;;;;;;;5063683;28;20479;-68
2022/01/28 16:24:40;;;;;;;1.98;0.40;;;;;;;;;;5063807;28;20473;-68
2022/01/28 16:27:06;;;;;;;2.17;0.60;;;;;;;;;;5063274;28;20043;-69
2022/01/28 16:29:31;;;;;;;5.00;0.50;;;;;;;;;;5063384;28;20029;-68
2022/01/28 16:31:57;;;;;;;2.22;0.63;;;;;;;;;;5063404;28;20048;-69